createdAt,value
2023-01-09T00:01:34.148Z,98671.80
2023-01-09T00:03:05.912Z,98679.80
2023-01-09T00:04:37.832Z,98673.40
2023-01-09T00:06:09.928Z,98670.20
2023-01-09T00:07:42.099Z,98672.20
2023-01-09T00:09:13.938Z,98669.40
2023-01-09T00:10:49.338Z,98673.00
2023-01-09T00:12:21.137Z,98675.80
2023-01-09T00:13:52.898Z,98672.00
2023-01-09T00:15:25.210Z,98675.00
2023-01-09T00:16:57.869Z,98675.00
2023-01-09T00:18:29.622Z,98670.00
2023-01-09T00:20:01.521Z,98671.80
2023-01-09T00:21:33.500Z,98661.80
2023-01-09T00:23:05.436Z,98666.20
2023-01-09T00:24:37.420Z,98668.40
2023-01-09T00:26:19.188Z,98668.80
2023-01-09T00:27:50.927Z,98667.40
2023-01-09T00:29:22.747Z,98673.60
2023-01-09T00:31:00.286Z,98673.40
2023-01-09T00:32:32.822Z,98672.60
2023-01-09T00:34:13.173Z,98670.40
2023-01-09T00:35:44.905Z,98672.20
2023-01-09T00:37:18.123Z,98676.00
2023-01-09T00:38:50.593Z,98674.00
2023-01-09T00:40:22.524Z,98674.80
2023-01-09T00:41:56.600Z,98671.00
2023-01-09T00:43:35.753Z,98678.00
2023-01-09T00:45:15.803Z,98675.40
2023-01-09T00:46:55.828Z,98679.80
2023-01-09T00:48:29.789Z,98683.00
2023-01-09T00:50:12.076Z,98675.40
2023-01-09T00:51:43.987Z,98672.80
2023-01-09T00:53:23.368Z,98674.60
2023-01-09T00:54:55.157Z,98671.00
2023-01-09T00:56:27.067Z,98673.20
2023-01-09T00:57:58.853Z,98673.60
2023-01-09T00:59:30.774Z,98673.80
2023-01-09T01:01:02.679Z,98675.60
2023-01-09T01:02:35.095Z,98678.20
2023-01-09T01:04:25.590Z,98676.80
2023-01-09T01:06:16.187Z,98686.20
2023-01-09T01:07:48.041Z,98685.80
2023-01-09T01:09:21.019Z,98687.40
2023-01-09T01:10:52.983Z,98686.60
2023-01-09T01:12:25.511Z,98690.40
2023-01-09T01:13:57.316Z,98688.80
2023-01-09T01:15:29.610Z,98692.00
2023-01-09T01:17:01.623Z,98686.60
2023-01-09T01:18:33.631Z,98688.20
2023-01-09T01:20:10.996Z,98687.80
2023-01-09T01:21:42.788Z,98689.60
2023-01-09T01:23:14.699Z,98693.00
2023-01-09T01:24:46.667Z,98693.80
2023-01-09T01:26:18.473Z,98693.40
2023-01-09T01:27:50.841Z,98695.80
2023-01-09T01:29:22.666Z,98690.60
2023-01-09T01:30:54.477Z,98688.40
2023-01-09T01:32:26.458Z,98692.20
2023-01-09T01:33:58.158Z,98695.00
2023-01-09T01:35:29.946Z,98695.60
2023-01-09T01:37:01.724Z,98695.40
2023-01-09T01:38:34.945Z,98692.80
2023-01-09T01:40:11.023Z,98690.40
2023-01-09T01:41:43.001Z,98697.00
2023-01-09T01:43:14.755Z,98701.00
2023-01-09T01:45:08.771Z,98702.60
2023-01-09T01:46:40.545Z,98712.00
2023-01-09T01:48:21.266Z,98706.40
2023-01-09T01:49:53.059Z,98713.80
2023-01-09T01:51:31.597Z,98717.60
2023-01-09T01:53:20.909Z,98718.40
2023-01-09T01:54:53.499Z,98726.00
2023-01-09T01:56:32.619Z,98729.00
2023-01-09T01:58:09.093Z,98726.40
2023-01-09T01:59:57.326Z,98723.40
2023-01-09T02:03:46.936Z,98728.40
2023-01-09T02:05:19.616Z,98727.20
2023-01-09T02:06:57.594Z,98728.00
2023-01-09T02:08:29.405Z,98730.00
2023-01-09T02:10:01.891Z,98735.20
2023-01-09T02:11:34.334Z,98737.20
2023-01-09T02:13:08.867Z,98736.80
2023-01-09T02:14:40.671Z,98737.00
2023-01-09T02:16:48.237Z,98745.60
2023-01-09T02:18:57.001Z,98744.20
2023-01-09T02:21:03.631Z,98738.80
2023-01-09T02:22:42.192Z,98742.20
2023-01-09T02:25:01.683Z,98736.60
2023-01-09T02:27:01.908Z,98746.40
2023-01-09T02:29:14.631Z,98742.80
2023-01-09T02:31:25.506Z,98744.60
2023-01-09T02:33:28.172Z,98740.60
2023-01-09T02:35:44.245Z,98747.20
2023-01-09T02:38:11.212Z,98745.60
2023-01-09T02:40:14.761Z,98748.00
2023-01-09T02:42:08.977Z,98752.00
2023-01-09T02:43:42.011Z,98752.80
2023-01-09T02:45:14.474Z,98755.20
2023-01-09T02:46:55.375Z,98752.80
2023-01-09T02:48:52.926Z,98748.20
2023-01-09T02:51:12.941Z,98746.80
2023-01-09T02:53:21.261Z,98742.60
2023-01-09T02:55:31.390Z,98745.80
2023-01-09T02:57:46.556Z,98744.60
2023-01-09T02:59:48.270Z,98746.60
2023-01-09T03:01:46.545Z,98741.20
2023-01-09T03:03:27.582Z,98745.80
2023-01-09T03:05:16.387Z,98747.20
2023-01-09T03:06:54.370Z,98750.00
2023-01-09T03:08:47.913Z,98750.20
2023-01-09T03:11:04.796Z,98753.80
2023-01-09T03:14:53.749Z,98756.40
2023-01-09T03:16:38.715Z,98753.20
2023-01-09T03:18:15.578Z,98754.20
2023-01-09T03:19:52.643Z,98757.80
2023-01-09T03:21:26.437Z,98760.80
2023-01-09T03:23:02.808Z,98760.80
2023-01-09T03:24:34.664Z,98766.00
2023-01-09T03:26:10.558Z,98767.00
2023-01-09T03:27:42.368Z,98767.40
2023-01-09T03:29:14.127Z,98770.20
2023-01-09T03:30:45.835Z,98768.60
2023-01-09T03:32:24.032Z,98776.80
2023-01-09T03:33:56.118Z,98781.60
2023-01-09T03:35:28.666Z,98788.20
2023-01-09T03:37:04.321Z,98792.80
2023-01-09T03:38:36.034Z,98792.20
2023-01-09T03:40:09.117Z,98798.00
2023-01-09T03:41:40.864Z,98800.60
2023-01-09T03:43:16.316Z,98807.00
2023-01-09T03:44:50.899Z,98810.60
2023-01-09T03:46:22.698Z,98813.40
2023-01-09T03:47:54.790Z,98821.20
2023-01-09T03:49:26.627Z,98815.40
2023-01-09T03:51:01.733Z,98815.60
2023-01-09T03:52:35.984Z,98813.40
2023-01-09T03:54:08.110Z,98812.60
2023-01-09T03:55:45.332Z,98811.80
2023-01-09T03:57:17.762Z,98815.20
2023-01-09T03:58:50.711Z,98814.60
2023-01-09T04:00:22.822Z,98814.60
2023-01-09T04:01:55.746Z,98810.20
2023-01-09T04:03:28.859Z,98819.00
2023-01-09T04:05:03.167Z,98816.60
2023-01-09T04:06:35.161Z,98817.40
2023-01-09T04:08:07.452Z,98813.60
2023-01-09T04:09:39.235Z,98819.20
2023-01-09T04:11:11.082Z,98818.40
2023-01-09T04:12:42.901Z,98820.40
2023-01-09T04:14:14.978Z,98823.00
2023-01-09T04:15:46.830Z,98825.20
2023-01-09T04:17:18.677Z,98823.40
2023-01-09T04:18:50.493Z,98825.80
2023-01-09T04:20:22.333Z,98828.60
2023-01-09T04:21:54.183Z,98829.20
2023-01-09T04:23:25.988Z,98828.40
2023-01-09T04:24:57.728Z,98826.20
2023-01-09T04:26:29.518Z,98825.20
2023-01-09T04:28:01.329Z,98828.60
2023-01-09T04:29:33.113Z,98827.60
2023-01-09T04:31:05.332Z,98835.00
2023-01-09T04:32:37.113Z,98834.80
2023-01-09T04:34:08.792Z,98831.20
2023-01-09T04:35:40.609Z,98836.60
2023-01-09T04:37:12.543Z,98836.60
2023-01-09T04:38:44.311Z,98832.20
2023-01-09T04:40:16.697Z,98836.60
2023-01-09T04:41:51.661Z,98834.60
2023-01-09T04:43:23.485Z,98833.60
2023-01-09T04:44:55.288Z,98834.00
2023-01-09T04:46:28.687Z,98835.00
2023-01-09T04:48:00.453Z,98833.60
2023-01-09T04:49:32.688Z,98829.40
2023-01-09T04:51:05.458Z,98830.60
2023-01-09T04:52:39.012Z,98831.80
2023-01-09T04:54:11.047Z,98830.80
2023-01-09T04:55:43.164Z,98835.40
2023-01-09T04:57:14.993Z,98832.00
2023-01-09T04:59:03.842Z,98842.60
2023-01-09T05:00:35.877Z,98843.60
2023-01-09T05:02:07.853Z,98846.00
2023-01-09T05:03:39.729Z,98843.80
2023-01-09T05:05:12.073Z,98847.20
2023-01-09T05:06:44.001Z,98851.20
2023-01-09T05:08:15.705Z,98847.40
2023-01-09T05:09:47.507Z,98853.40
2023-01-09T05:11:21.955Z,98859.80
2023-01-09T05:12:53.655Z,98861.80
2023-01-09T05:14:25.405Z,98861.40
2023-01-09T05:15:57.211Z,98865.40
2023-01-09T05:17:29.321Z,98871.80
2023-01-09T05:19:01.091Z,98870.20
2023-01-09T05:20:32.867Z,98870.80
2023-01-09T05:22:04.990Z,98871.80
2023-01-09T05:23:37.805Z,98872.80
2023-01-09T05:25:09.929Z,98872.60
2023-01-09T05:26:41.676Z,98873.60
2023-01-09T05:28:13.490Z,98878.00
2023-01-09T05:29:45.268Z,98873.00
2023-01-09T05:31:18.731Z,98881.20
2023-01-09T05:32:50.487Z,98875.80
2023-01-09T05:34:23.627Z,98879.00
2023-01-09T05:35:55.410Z,98875.40
2023-01-09T05:37:27.159Z,98876.40
2023-01-09T05:38:58.905Z,98878.20
2023-01-09T05:40:40.043Z,98877.20
2023-01-09T05:42:12.447Z,98878.20
2023-01-09T05:43:44.246Z,98879.60
2023-01-09T05:45:16.062Z,98879.00
2023-01-09T05:46:48.490Z,98880.00
2023-01-09T05:48:20.296Z,98875.40
2023-01-09T05:49:52.214Z,98871.80
2023-01-09T05:51:24.354Z,98871.80
2023-01-09T05:52:56.053Z,98875.60
2023-01-09T05:54:27.795Z,98875.40
2023-01-09T05:55:59.571Z,98873.40
2023-01-09T05:57:31.440Z,98870.60
2023-01-09T05:59:03.224Z,98877.20
2023-01-09T06:00:35.124Z,98873.40
2023-01-09T06:02:07.384Z,98874.20
2023-01-09T06:03:39.173Z,98876.20
2023-01-09T06:05:11.057Z,98875.20
2023-01-09T06:06:42.871Z,98879.40
2023-01-09T06:08:15.137Z,98877.00
2023-01-09T06:09:47.091Z,98874.00
2023-01-09T06:11:18.853Z,98874.00
2023-01-09T06:12:52.213Z,98867.60
2023-01-09T06:14:25.555Z,98873.20
2023-01-09T06:15:57.372Z,98867.40
2023-01-09T06:17:29.319Z,98879.40
2023-01-09T06:19:01.059Z,98874.40
2023-01-09T06:20:33.261Z,98873.60
2023-01-09T06:22:05.121Z,98871.80
2023-01-09T06:23:36.861Z,98878.60
2023-01-09T06:25:09.708Z,98872.80
2023-01-09T06:26:41.562Z,98881.20
2023-01-09T06:28:13.524Z,98879.80
2023-01-09T06:29:45.322Z,98882.40
2023-01-09T06:31:17.189Z,98877.40
2023-01-09T06:32:49.946Z,98881.20
2023-01-09T06:34:21.680Z,98884.20
2023-01-09T06:35:53.532Z,98883.80
2023-01-09T06:37:26.449Z,98888.80
2023-01-09T06:39:00.217Z,98883.60
2023-01-09T06:40:31.996Z,98883.40
2023-01-09T06:42:04.711Z,98885.40
2023-01-09T06:43:36.484Z,98885.80
2023-01-09T06:45:09.450Z,98880.80
2023-01-09T06:46:41.874Z,98886.60
2023-01-09T06:48:13.924Z,98885.40
2023-01-09T06:49:45.665Z,98888.80
2023-01-09T06:51:18.010Z,98884.80
2023-01-09T06:52:49.897Z,98888.40
2023-01-09T06:54:23.776Z,98885.60
2023-01-09T06:55:55.658Z,98887.60
2023-01-09T06:57:27.697Z,98891.60
2023-01-09T06:59:01.213Z,98884.60
2023-01-09T07:00:33.344Z,98888.40
2023-01-09T07:02:05.218Z,98885.40
2023-01-09T07:03:37.194Z,98887.80
2023-01-09T07:05:11.977Z,98891.40
2023-01-09T07:06:47.771Z,98890.00
2023-01-09T07:08:19.668Z,98891.20
2023-01-09T07:09:51.795Z,98889.20
2023-01-09T07:11:23.554Z,98890.20
2023-01-09T07:12:55.249Z,98893.00
2023-01-09T07:14:26.959Z,98892.00
2023-01-09T07:15:58.816Z,98892.40
2023-01-09T07:17:30.617Z,98890.40
2023-01-09T07:19:02.388Z,98892.00
2023-01-09T07:20:34.336Z,98889.80
2023-01-09T07:22:06.076Z,98887.40
2023-01-09T07:23:37.857Z,98891.20
2023-01-09T07:25:09.902Z,98890.80
2023-01-09T07:26:43.344Z,98892.00
2023-01-09T07:28:15.276Z,98895.00
2023-01-09T07:29:47.138Z,98891.00
2023-01-09T07:31:18.952Z,98888.60
2023-01-09T07:32:50.807Z,98888.60
2023-01-09T07:34:22.636Z,98888.60
2023-01-09T07:35:54.418Z,98888.80
2023-01-09T07:37:26.246Z,98890.80
2023-01-09T07:38:57.976Z,98889.20
2023-01-09T07:40:30.124Z,98890.40
2023-01-09T07:42:01.992Z,98889.20
2023-01-09T07:43:33.804Z,98891.40
2023-01-09T07:45:06.947Z,98891.80
2023-01-09T07:46:40.508Z,98887.40
2023-01-09T07:48:12.253Z,98894.60
2023-01-09T07:49:44.054Z,98897.00
2023-01-09T07:51:15.912Z,98896.00
2023-01-09T07:52:48.479Z,98891.40
2023-01-09T07:54:20.339Z,98893.40
2023-01-09T07:55:54.992Z,98886.60
2023-01-09T07:57:29.847Z,98885.20
2023-01-09T07:59:01.906Z,98892.60
2023-01-09T08:00:36.788Z,98890.20
2023-01-09T08:02:10.906Z,98896.20
2023-01-09T08:03:42.972Z,98893.20
2023-01-09T08:05:16.088Z,98893.20
2023-01-09T08:06:48.056Z,98891.20
2023-01-09T08:08:20.253Z,98895.40
2023-01-09T08:09:52.455Z,98897.60
2023-01-09T08:11:25.482Z,98895.80
2023-01-09T08:12:57.750Z,98899.20
2023-01-09T08:14:29.665Z,98896.20
2023-01-09T08:16:01.463Z,98901.40
2023-01-09T08:17:35.599Z,98907.00
2023-01-09T08:19:07.784Z,98909.60
2023-01-09T08:20:41.848Z,98907.80
2023-01-09T08:22:17.021Z,98906.60
2023-01-09T08:23:51.731Z,98911.80
2023-01-09T08:25:24.677Z,98907.60
2023-01-09T08:26:58.858Z,98911.60
2023-01-09T08:28:31.179Z,98914.20
2023-01-09T08:30:06.222Z,98906.60
2023-01-09T08:31:38.127Z,98904.40
2023-01-09T08:33:17.201Z,98908.20
2023-01-09T08:34:50.108Z,98906.40
2023-01-09T08:36:26.609Z,98911.60
2023-01-09T08:38:00.927Z,98919.60
2023-01-09T08:39:36.050Z,98913.20
2023-01-09T08:41:27.749Z,98909.40
2023-01-09T08:43:19.217Z,98915.20
2023-01-09T08:45:09.878Z,98911.60
2023-01-09T08:47:01.859Z,98907.40
2023-01-09T08:50:25.675Z,98909.40
2023-01-09T08:51:59.570Z,98913.00
2023-01-09T08:53:34.695Z,98918.60
2023-01-09T08:55:08.459Z,98918.80
2023-01-09T08:56:40.947Z,98918.20
2023-01-09T08:58:15.746Z,98917.80
2023-01-09T08:59:48.011Z,98916.60
2023-01-09T09:01:19.748Z,98916.20
2023-01-09T09:03:00.831Z,98913.80
2023-01-09T09:04:37.275Z,98927.40
2023-01-09T09:06:09.557Z,98926.00
2023-01-09T09:07:44.341Z,98929.00
2023-01-09T09:09:16.341Z,98928.80
2023-01-09T09:10:48.526Z,98929.60
2023-01-09T09:12:22.974Z,98926.20
2023-01-09T09:13:54.738Z,98931.80
2023-01-09T09:15:28.614Z,98934.60
2023-01-09T09:17:01.023Z,98940.00
2023-01-09T09:18:34.282Z,98938.60
2023-01-09T09:20:11.419Z,98942.60
2023-01-09T09:21:43.600Z,98942.20
2023-01-09T09:23:15.984Z,98943.60
2023-01-09T09:24:48.210Z,98940.00
2023-01-09T09:26:20.389Z,98946.40
2023-01-09T09:27:56.657Z,98949.60
2023-01-09T09:29:28.711Z,98952.00
2023-01-09T09:31:05.399Z,98948.80
2023-01-09T09:32:41.638Z,98949.60
2023-01-09T09:34:16.074Z,98952.00
2023-01-09T09:35:48.083Z,98956.00
2023-01-09T09:37:21.641Z,98957.40
2023-01-09T09:38:53.948Z,98955.20
2023-01-09T09:40:54.064Z,98960.40
2023-01-09T09:43:16.893Z,98954.20
2023-01-09T09:45:13.926Z,98960.40
2023-01-09T09:47:06.545Z,98970.00
2023-01-09T09:48:56.704Z,98976.60
2023-01-09T09:50:41.613Z,98975.60
2023-01-09T09:52:55.407Z,98980.80
2023-01-09T09:54:43.596Z,98982.20
2023-01-09T09:56:21.660Z,98986.80
2023-01-09T09:57:55.159Z,98982.60
2023-01-09T09:59:33.607Z,98981.80
2023-01-09T10:01:08.584Z,98985.80
2023-01-09T10:03:33.418Z,98989.80
2023-01-09T10:05:19.794Z,98989.80
2023-01-09T10:07:00.557Z,98996.80
2023-01-09T10:08:58.039Z,98990.20
2023-01-09T10:10:38.909Z,98994.80
2023-01-09T10:12:47.575Z,98990.60
2023-01-09T10:14:24.408Z,99000.00
2023-01-09T10:16:29.258Z,98997.00
2023-01-09T10:18:16.036Z,99000.20
2023-01-09T10:19:50.498Z,98994.20
2023-01-09T10:21:52.186Z,98994.80
2023-01-09T10:23:57.919Z,98990.00
2023-01-09T10:26:00.913Z,98988.60
2023-01-09T10:28:04.463Z,98996.00
2023-01-09T10:30:00.948Z,98986.20
2023-01-09T10:31:55.212Z,98986.60
2023-01-09T10:33:41.998Z,98992.00
2023-01-09T10:36:03.579Z,98977.00
2023-01-09T10:37:47.317Z,98984.40
2023-01-09T10:39:35.449Z,98985.40
2023-01-09T10:41:27.284Z,98993.00
2023-01-09T10:43:14.289Z,98997.60
2023-01-09T10:45:20.188Z,98996.00
2023-01-09T10:46:58.713Z,99001.60
2023-01-09T10:48:36.477Z,98999.80
2023-01-09T10:50:34.701Z,99003.60
2023-01-09T10:52:11.233Z,99004.00
2023-01-09T10:53:50.188Z,99008.40
2023-01-09T10:55:47.839Z,99009.40
2023-01-09T10:57:44.523Z,99000.00
2023-01-09T10:59:16.368Z,99011.40
2023-01-09T11:00:50.902Z,99018.40
2023-01-09T11:02:36.234Z,99015.00
2023-01-09T11:04:31.098Z,99010.40
2023-01-09T11:06:05.121Z,99009.20
2023-01-09T11:07:42.374Z,99009.20
2023-01-09T11:09:16.510Z,99008.20
2023-01-09T11:10:52.355Z,99012.60
2023-01-09T11:12:28.440Z,99011.20
2023-01-09T11:14:31.639Z,99011.20
2023-01-09T11:16:22.171Z,99007.00
2023-01-09T11:17:55.220Z,99007.80
2023-01-09T11:19:29.470Z,99014.00
2023-01-09T11:21:40.498Z,99018.40
2023-01-09T11:23:33.948Z,99004.20
2023-01-09T11:25:13.366Z,99001.40
2023-01-09T11:26:51.733Z,99005.80
2023-01-09T11:28:25.074Z,99016.00
2023-01-09T11:30:18.846Z,99011.20
2023-01-09T11:32:01.686Z,99010.20
2023-01-09T11:33:50.034Z,99020.80
2023-01-09T11:35:34.653Z,99015.60
2023-01-09T11:37:11.662Z,99020.80
2023-01-09T11:38:53.387Z,99018.20
2023-01-09T11:40:25.635Z,99018.00
2023-01-09T11:42:01.613Z,99016.80
2023-01-09T11:43:39.853Z,99021.40
2023-01-09T11:45:29.973Z,99025.00
2023-01-09T11:47:03.779Z,99029.60
2023-01-09T11:49:13.026Z,99026.40
2023-01-09T11:50:56.071Z,99031.00
2023-01-09T11:52:27.830Z,99037.20
2023-01-09T11:54:19.773Z,99042.20
2023-01-09T11:56:01.963Z,99053.00
2023-01-09T11:57:34.647Z,99049.40
2023-01-09T11:59:17.441Z,99048.80
2023-01-09T12:01:30.388Z,99056.60
2023-01-09T12:03:20.294Z,99065.40
2023-01-09T12:05:02.869Z,99065.60
2023-01-09T12:07:12.217Z,99068.20
2023-01-09T12:08:56.918Z,99072.00
2023-01-09T12:11:02.800Z,99080.60
2023-01-09T12:13:19.226Z,99081.00
2023-01-09T12:15:20.628Z,99083.60
2023-01-09T12:17:20.569Z,99088.40
2023-01-09T12:19:08.107Z,99084.60
2023-01-09T12:20:52.087Z,99085.20
2023-01-09T12:22:40.006Z,99095.20
2023-01-09T12:24:29.096Z,99091.20
2023-01-09T12:26:03.844Z,99090.40
2023-01-09T12:28:22.515Z,99096.40
2023-01-09T12:30:44.987Z,99097.00
2023-01-09T12:32:31.981Z,99098.40
2023-01-09T12:34:55.534Z,99104.20
2023-01-09T12:36:53.661Z,99106.40
2023-01-09T12:38:31.973Z,99106.60
2023-01-09T12:40:16.024Z,99108.20
2023-01-09T12:42:26.186Z,99114.80
2023-01-09T12:44:36.546Z,99107.00
2023-01-09T12:46:24.784Z,99111.80
2023-01-09T12:48:57.328Z,99107.20
2023-01-09T12:50:47.017Z,99122.20
2023-01-09T12:52:26.371Z,99116.80
2023-01-09T12:54:21.422Z,99126.00
2023-01-09T12:56:06.587Z,99115.60
2023-01-09T12:57:51.177Z,99127.40
2023-01-09T12:59:54.157Z,99126.00
2023-01-09T13:01:34.780Z,99122.80
2023-01-09T13:03:27.262Z,99118.60
2023-01-09T13:05:21.515Z,99127.80
2023-01-09T13:07:01.710Z,99124.60
2023-01-09T13:08:41.497Z,99128.20
2023-01-09T13:10:30.831Z,99130.20
2023-01-09T13:12:36.891Z,99136.00
2023-01-09T13:14:21.592Z,99140.60
2023-01-09T13:15:58.209Z,99150.40
2023-01-09T13:17:45.815Z,99149.80
2023-01-09T13:19:40.023Z,99152.60
2023-01-09T13:21:15.668Z,99147.80
2023-01-09T13:22:51.223Z,99151.00
2023-01-09T13:25:05.519Z,99156.00
2023-01-09T13:26:47.728Z,99158.60
2023-01-09T13:28:31.901Z,99160.40
2023-01-09T13:30:26.337Z,99163.40
2023-01-09T13:32:49.548Z,99161.60
2023-01-09T13:34:27.253Z,99167.20
2023-01-09T13:36:03.460Z,99169.40
2023-01-09T13:37:37.192Z,99173.00
2023-01-09T13:39:26.986Z,99172.20
2023-01-09T13:41:36.533Z,99174.80
2023-01-09T13:43:13.797Z,99180.00
2023-01-09T13:44:49.801Z,99189.20
2023-01-09T13:46:22.179Z,99187.60
2023-01-09T13:48:14.638Z,99190.00
2023-01-09T13:49:51.642Z,99191.80
2023-01-09T13:51:41.935Z,99194.40
2023-01-09T13:53:20.242Z,99205.00
2023-01-09T13:54:55.392Z,99209.00
2023-01-09T13:56:27.283Z,99216.80
2023-01-09T13:58:05.431Z,99210.80
2023-01-09T13:59:37.433Z,99215.80
2023-01-09T14:01:39.514Z,99219.40
2023-01-09T14:03:24.011Z,99226.20
2023-01-09T14:04:55.818Z,99225.40
2023-01-09T14:06:28.471Z,99233.40
2023-01-09T14:08:21.632Z,99231.40
2023-01-09T14:10:04.742Z,99234.40
2023-01-09T14:11:37.327Z,99238.20
2023-01-09T14:13:21.408Z,99243.80
2023-01-09T14:14:58.597Z,99250.80
2023-01-09T14:16:32.339Z,99257.00
2023-01-09T14:18:26.111Z,99253.00
2023-01-09T14:20:05.435Z,99256.00
2023-01-09T14:21:58.789Z,99260.20
2023-01-09T14:23:51.627Z,99259.20
2023-01-09T14:25:29.703Z,99261.80
2023-01-09T14:27:02.288Z,99265.40
2023-01-09T14:28:34.272Z,99268.80
2023-01-09T14:30:53.730Z,99277.80
2023-01-09T14:32:30.744Z,99277.40
2023-01-09T14:34:35.246Z,99285.60
2023-01-09T14:36:21.816Z,99288.60
2023-01-09T14:38:14.126Z,99288.60
2023-01-09T14:39:49.536Z,99296.40
2023-01-09T14:41:58.006Z,99301.20
2023-01-09T14:43:48.691Z,99310.60
2023-01-09T14:45:27.078Z,99312.20
2023-01-09T14:47:35.603Z,99315.40
2023-01-09T14:49:29.826Z,99326.20
2023-01-09T14:51:02.674Z,99326.40
2023-01-09T14:52:44.909Z,99330.60
2023-01-09T14:54:42.946Z,99334.00
2023-01-09T14:56:31.731Z,99341.40
2023-01-09T14:58:32.944Z,99342.40
2023-01-09T15:00:12.978Z,99348.80
2023-01-09T15:01:49.527Z,99346.60
2023-01-09T15:03:24.294Z,99350.60
2023-01-09T15:05:05.138Z,99354.60
2023-01-09T15:06:43.441Z,99349.40
2023-01-09T15:08:22.747Z,99354.80
2023-01-09T15:09:55.486Z,99360.60
2023-01-09T15:11:29.463Z,99364.60
2023-01-09T15:13:08.310Z,99367.80
2023-01-09T15:14:48.197Z,99373.20
2023-01-09T15:16:26.477Z,99380.00
2023-01-09T15:18:04.220Z,99386.00
2023-01-09T15:19:36.035Z,99390.80
2023-01-09T15:21:21.962Z,99390.40
2023-01-09T15:22:55.333Z,99394.40
2023-01-09T15:24:32.395Z,99392.20
2023-01-09T15:26:33.815Z,99394.80
2023-01-09T15:28:20.685Z,99403.60
2023-01-09T15:29:53.284Z,99400.00
2023-01-09T15:31:26.197Z,99406.00
2023-01-09T15:32:58.050Z,99411.60
2023-01-09T15:34:29.975Z,99415.40
2023-01-09T15:36:12.809Z,99422.00
2023-01-09T15:37:45.075Z,99426.00
2023-01-09T15:39:27.349Z,99429.40
2023-01-09T15:41:06.772Z,99431.40
2023-01-09T15:42:58.483Z,99433.40
2023-01-09T15:44:36.703Z,99437.60
2023-01-09T15:46:12.228Z,99435.80
2023-01-09T15:47:44.057Z,99440.40
2023-01-09T15:49:17.907Z,99443.60
2023-01-09T15:51:13.585Z,99443.00
2023-01-09T15:52:45.593Z,99432.00
2023-01-09T15:54:29.974Z,99434.40
2023-01-09T15:56:25.640Z,99438.60
2023-01-09T15:57:57.921Z,99449.60
2023-01-09T15:59:29.845Z,99451.40
2023-01-09T16:01:37.921Z,99453.80
2023-01-09T16:03:24.200Z,99459.40
2023-01-09T16:04:56.658Z,99458.80
2023-01-09T16:06:32.300Z,99464.20
2023-01-09T16:08:05.550Z,99468.40
2023-01-09T16:09:38.634Z,99471.60
2023-01-09T16:11:24.634Z,99475.40
2023-01-09T16:12:57.096Z,99481.60
2023-01-09T16:14:38.873Z,99491.60
2023-01-09T16:16:12.614Z,99491.40
2023-01-09T16:18:17.436Z,99496.80
2023-01-09T16:20:15.845Z,99499.60
2023-01-09T16:22:00.607Z,99505.80
2023-01-09T16:23:36.340Z,99508.00
2023-01-09T16:25:32.379Z,99512.20
2023-01-09T16:27:31.072Z,99517.20
2023-01-09T16:29:36.722Z,99520.00
2023-01-09T16:31:30.827Z,99527.40
2023-01-09T16:33:02.763Z,99528.20
2023-01-09T16:34:36.313Z,99531.60
2023-01-09T16:36:10.630Z,99531.20
2023-01-09T16:37:42.432Z,99532.20
2023-01-09T16:39:17.577Z,99534.80
2023-01-09T16:41:18.623Z,99541.40
2023-01-09T16:43:01.716Z,99541.40
2023-01-09T16:44:36.073Z,99542.60
2023-01-09T16:46:08.288Z,99544.20
2023-01-09T16:47:42.833Z,99544.60
2023-01-09T16:49:20.714Z,99551.60
2023-01-09T16:50:52.457Z,99552.40
2023-01-09T16:52:24.626Z,99556.80
2023-01-09T16:53:57.693Z,99559.80
2023-01-09T16:55:29.534Z,99564.00
2023-01-09T16:57:02.620Z,99568.20
2023-01-09T16:58:36.100Z,99568.20
2023-01-09T17:00:21.352Z,99569.60
2023-01-09T17:01:55.607Z,99579.20
2023-01-09T17:03:27.515Z,99575.80
2023-01-09T17:04:59.575Z,99578.80
2023-01-09T17:06:32.792Z,99582.80
2023-01-09T17:08:22.245Z,99576.40
2023-01-09T17:09:55.443Z,99581.60
2023-01-09T17:11:33.309Z,99587.20
2023-01-09T17:13:06.829Z,99589.00
2023-01-09T17:14:38.695Z,99589.60
2023-01-09T17:16:12.036Z,99587.60
2023-01-09T17:17:43.902Z,99590.60
2023-01-09T17:19:19.937Z,99594.00
2023-01-09T17:20:57.052Z,99596.60
2023-01-09T17:22:28.798Z,99600.60
2023-01-09T17:24:19.199Z,99602.80
2023-01-09T17:26:16.045Z,99602.60
2023-01-09T17:28:06.502Z,99603.60
2023-01-09T17:29:38.409Z,99610.20
2023-01-09T17:31:11.981Z,99613.00
2023-01-09T17:32:44.901Z,99618.80
2023-01-09T17:34:16.793Z,99621.80
2023-01-09T17:35:48.753Z,99631.40
2023-01-09T17:37:21.091Z,99631.40
2023-01-09T17:38:57.270Z,99637.40
2023-01-09T17:40:30.471Z,99646.00
2023-01-09T17:42:02.451Z,99644.60
2023-01-09T17:43:34.647Z,99646.20
2023-01-09T17:45:07.153Z,99648.00
2023-01-09T17:46:46.960Z,99648.80
2023-01-09T17:48:22.774Z,99652.20
2023-01-09T17:49:55.818Z,99649.60
2023-01-09T17:51:32.296Z,99657.00
2023-01-09T17:53:04.296Z,99652.80
2023-01-09T17:54:37.425Z,99654.80
2023-01-09T17:56:23.902Z,99667.40
2023-01-09T17:57:55.797Z,99685.20
2023-01-09T17:59:30.339Z,99694.20
2023-01-09T18:01:07.063Z,99699.20
2023-01-09T18:02:39.105Z,99697.20
2023-01-09T18:04:12.735Z,99700.60
2023-01-09T18:05:47.046Z,99699.60
2023-01-09T18:07:19.488Z,99702.00
2023-01-09T18:08:51.454Z,99695.40
2023-01-09T18:10:29.902Z,99688.80
2023-01-09T18:12:07.682Z,99688.00
2023-01-09T18:13:41.148Z,99693.40
2023-01-09T18:15:13.267Z,99700.40
2023-01-09T18:16:47.313Z,99701.80
2023-01-09T18:18:20.198Z,99702.60
2023-01-09T18:19:52.650Z,99702.80
2023-01-09T18:21:28.043Z,99709.00
2023-01-09T18:23:00.522Z,99706.60
2023-01-09T18:24:33.001Z,99712.40
2023-01-09T18:26:08.898Z,99714.20
2023-01-09T18:27:40.815Z,99716.40
2023-01-09T18:29:14.327Z,99716.40
2023-01-09T18:30:48.045Z,99721.00
2023-01-09T18:32:19.879Z,99724.40
2023-01-09T18:33:54.747Z,99731.00
2023-01-09T18:35:26.866Z,99734.60
2023-01-09T18:36:58.939Z,99735.00
2023-01-09T18:38:30.815Z,99737.60
2023-01-09T18:40:03.141Z,99735.20
2023-01-09T18:41:35.962Z,99740.40
2023-01-09T18:43:10.461Z,99743.20
2023-01-09T18:44:42.301Z,99746.40
2023-01-09T18:46:14.751Z,99749.00
2023-01-09T18:47:49.172Z,99753.20
2023-01-09T18:49:21.220Z,99753.00
2023-01-09T18:51:06.768Z,99756.60
2023-01-09T18:52:42.854Z,99758.40
2023-01-09T18:54:14.909Z,99762.80
2023-01-09T18:55:47.387Z,99760.40
2023-01-09T18:57:21.623Z,99769.20
2023-01-09T18:58:58.178Z,99770.80
2023-01-09T19:00:30.359Z,99776.00
2023-01-09T19:02:02.430Z,99780.80
2023-01-09T19:03:34.736Z,99779.00
2023-01-09T19:05:08.452Z,99779.00
2023-01-09T19:06:40.284Z,99787.60
2023-01-09T19:08:13.882Z,99791.60
2023-01-09T19:09:47.476Z,99796.80
2023-01-09T19:11:19.400Z,99798.40
2023-01-09T19:12:51.282Z,99794.80
2023-01-09T19:14:23.339Z,99794.20
2023-01-09T19:15:57.380Z,99798.60
2023-01-09T19:17:31.379Z,99799.40
2023-01-09T19:19:06.415Z,99802.80
2023-01-09T19:20:39.582Z,99810.00
2023-01-09T19:22:11.716Z,99807.00
2023-01-09T19:23:46.085Z,99805.60
2023-01-09T19:25:18.019Z,99807.00
2023-01-09T19:26:50.111Z,99804.40
2023-01-09T19:28:24.925Z,99809.20
2023-01-09T19:29:57.573Z,99816.20
2023-01-09T19:31:32.155Z,99818.40
2023-01-09T19:33:04.734Z,99812.00